sensor_id;sensor_type;location;lat;lon;timestamp;P1;durP1;ratioP1;P2;durP2;ratioP2
77040;SDS011;65974;42.664;23.264;2023-07-16T00:02:37;21.83;;;14.95;;
77040;SDS011;65974;42.664;23.264;2023-07-16T00:05:03;19.35;;;14.57;;
77040;SDS011;65974;42.664;23.264;2023-07-16T00:07:28;19.52;;;15.35;;
77040;SDS011;65974;42.664;23.264;2023-07-16T00:09:54;18.27;;;13.45;;
77040;SDS011;65974;42.664;23.264;2023-07-16T00:12:19;20.58;;;13.65;;
77040;SDS011;65974;42.664;23.264;2023-07-16T00:14:45;21.90;;;14.82;;
77040;SDS011;65974;42.664;23.264;2023-07-16T00:17:10;20.63;;;14.13;;
77040;SDS011;65974;42.664;23.264;2023-07-16T00:19:36;20.00;;;14.52;;
77040;SDS011;65974;42.664;23.264;2023-07-16T00:22:02;22.38;;;14.32;;
77040;SDS011;65974;42.664;23.264;2023-07-16T00:24:28;21.55;;;15.05;;
77040;SDS011;65974;42.664;23.264;2023-07-16T00:26:53;19.30;;;14.70;;
77040;SDS011;65974;42.664;23.264;2023-07-16T00:29:18;21.38;;;14.07;;
77040;SDS011;65974;42.664;23.264;2023-07-16T00:31:44;17.63;;;13.45;;
77040;SDS011;65974;42.664;23.264;2023-07-16T00:34:09;19.80;;;15.27;;
77040;SDS011;65974;42.664;23.264;2023-07-16T00:36:35;19.73;;;15.40;;
77040;SDS011;65974;42.664;23.264;2023-07-16T00:39:00;19.60;;;14.80;;
77040;SDS011;65974;42.664;23.264;2023-07-16T00:41:26;20.23;;;14.57;;
77040;SDS011;65974;42.664;23.264;2023-07-16T00:43:51;21.92;;;15.30;;
77040;SDS011;65974;42.664;23.264;2023-07-16T00:51:09;20.38;;;14.43;;
77040;SDS011;65974;42.664;23.264;2023-07-16T00:53:35;22.17;;;14.45;;
77040;SDS011;65974;42.664;23.264;2023-07-16T00:56:00;18.85;;;14.80;;
77040;SDS011;65974;42.664;23.264;2023-07-16T00:58:26;21.27;;;14.57;;
77040;SDS011;65974;42.664;23.264;2023-07-16T01:00:51;24.60;;;14.75;;
77040;SDS011;65974;42.664;23.264;2023-07-16T01:03:17;22.58;;;15.70;;
77040;SDS011;65974;42.664;23.264;2023-07-16T01:08:42;20.98;;;14.65;;
77040;SDS011;65974;42.664;23.264;2023-07-16T01:11:11;25.23;;;15.38;;
77040;SDS011;65974;42.664;23.264;2023-07-16T01:13:37;20.90;;;15.65;;
77040;SDS011;65974;42.664;23.264;2023-07-16T01:16:03;25.75;;;14.65;;
77040;SDS011;65974;42.664;23.264;2023-07-16T01:18:29;22.15;;;14.77;;
77040;SDS011;65974;42.664;23.264;2023-07-16T01:20:54;22.35;;;15.43;;
77040;SDS011;65974;42.664;23.264;2023-07-16T01:31:56;21.58;;;14.68;;
77040;SDS011;65974;42.664;23.264;2023-07-16T01:34:24;18.85;;;14.18;;
77040;SDS011;65974;42.664;23.264;2023-07-16T01:36:53;22.70;;;16.27;;
77040;SDS011;65974;42.664;23.264;2023-07-16T01:39:18;22.75;;;15.02;;
77040;SDS011;65974;42.664;23.264;2023-07-16T01:41:44;23.88;;;17.17;;
77040;SDS011;65974;42.664;23.264;2023-07-16T01:44:09;20.13;;;14.93;;
77040;SDS011;65974;42.664;23.264;2023-07-16T01:46:35;23.65;;;14.23;;
77040;SDS011;65974;42.664;23.264;2023-07-16T01:49:00;24.02;;;14.88;;
77040;SDS011;65974;42.664;23.264;2023-07-16T01:51:26;21.60;;;15.15;;
77040;SDS011;65974;42.664;23.264;2023-07-16T01:53:51;21.60;;;14.80;;
77040;SDS011;65974;42.664;23.264;2023-07-16T01:56:17;19.98;;;15.13;;
77040;SDS011;65974;42.664;23.264;2023-07-16T01:58:42;22.20;;;15.75;;
77040;SDS011;65974;42.664;23.264;2023-07-16T02:01:07;21.15;;;14.52;;
77040;SDS011;65974;42.664;23.264;2023-07-16T02:03:33;19.13;;;14.70;;
77040;SDS011;65974;42.664;23.264;2023-07-16T02:05:58;23.92;;;15.05;;
77040;SDS011;65974;42.664;23.264;2023-07-16T02:08:24;18.98;;;13.60;;
77040;SDS011;65974;42.664;23.264;2023-07-16T02:10:49;24.02;;;16.20;;
77040;SDS011;65974;42.664;23.264;2023-07-16T02:13:15;23.13;;;16.02;;
77040;SDS011;65974;42.664;23.264;2023-07-16T02:15:40;21.20;;;15.15;;
77040;SDS011;65974;42.664;23.264;2023-07-16T02:18:07;19.10;;;15.23;;
77040;SDS011;65974;42.664;23.264;2023-07-16T02:20:32;25.98;;;14.32;;
77040;SDS011;65974;42.664;23.264;2023-07-16T02:22:57;18.92;;;14.60;;
77040;SDS011;65974;42.664;23.264;2023-07-16T02:25:23;18.65;;;15.32;;
77040;SDS011;65974;42.664;23.264;2023-07-16T02:27:49;19.95;;;15.18;;
77040;SDS011;65974;42.664;23.264;2023-07-16T02:30:15;18.80;;;15.52;;
77040;SDS011;65974;42.664;23.264;2023-07-16T02:32:40;17.33;;;14.45;;
77040;SDS011;65974;42.664;23.264;2023-07-16T02:35:06;21.65;;;14.57;;
77040;SDS011;65974;42.664;23.264;2023-07-16T02:37:32;21.27;;;15.90;;
77040;SDS011;65974;42.664;23.264;2023-07-16T02:39:58;20.05;;;14.15;;
77040;SDS011;65974;42.664;23.264;2023-07-16T02:42:23;22.80;;;15.07;;
77040;SDS011;65974;42.664;23.264;2023-07-16T02:44:49;22.52;;;15.15;;
77040;SDS011;65974;42.664;23.264;2023-07-16T02:47:14;19.67;;;13.35;;
77040;SDS011;65974;42.664;23.264;2023-07-16T02:49:40;22.17;;;13.50;;
77040;SDS011;65974;42.664;23.264;2023-07-16T02:52:05;19.73;;;14.48;;
77040;SDS011;65974;42.664;23.264;2023-07-16T02:54:31;24.05;;;14.77;;
77040;SDS011;65974;42.664;23.264;2023-07-16T02:56:57;21.23;;;14.07;;
77040;SDS011;65974;42.664;23.264;2023-07-16T02:59:23;18.27;;;13.38;;
77040;SDS011;65974;42.664;23.264;2023-07-16T03:01:48;21.20;;;14.27;;
77040;SDS011;65974;42.664;23.264;2023-07-16T03:04:15;18.92;;;13.75;;
77040;SDS011;65974;42.664;23.264;2023-07-16T03:06:40;21.52;;;14.13;;
77040;SDS011;65974;42.664;23.264;2023-07-16T03:09:06;36.30;;;17.17;;
77040;SDS011;65974;42.664;23.264;2023-07-16T03:11:31;22.15;;;14.93;;
77040;SDS011;65974;42.664;23.264;2023-07-16T03:13:56;19.05;;;14.15;;
77040;SDS011;65974;42.664;23.264;2023-07-16T03:16:22;21.08;;;14.07;;
77040;SDS011;65974;42.664;23.264;2023-07-16T03:18:47;20.05;;;13.70;;
77040;SDS011;65974;42.664;23.264;2023-07-16T03:21:13;25.05;;;15.23;;
77040;SDS011;65974;42.664;23.264;2023-07-16T03:23:38;23.73;;;15.93;;
77040;SDS011;65974;42.664;23.264;2023-07-16T03:26:04;21.98;;;15.40;;
77040;SDS011;65974;42.664;23.264;2023-07-16T03:28:29;18.50;;;13.35;;
77040;SDS011;65974;42.664;23.264;2023-07-16T03:30:55;24.75;;;16.08;;
77040;SDS011;65974;42.664;23.264;2023-07-16T03:33:20;23.30;;;16.10;;
77040;SDS011;65974;42.664;23.264;2023-07-16T03:35:46;22.45;;;15.02;;
77040;SDS011;65974;42.664;23.264;2023-07-16T03:38:13;23.38;;;16.13;;
77040;SDS011;65974;42.664;23.264;2023-07-16T03:40:39;21.20;;;15.95;;
77040;SDS011;65974;42.664;23.264;2023-07-16T03:43:04;21.10;;;15.18;;
77040;SDS011;65974;42.664;23.264;2023-07-16T03:45:30;21.15;;;16.17;;
77040;SDS011;65974;42.664;23.264;2023-07-16T03:48:14;25.65;;;17.00;;
77040;SDS011;65974;42.664;23.264;2023-07-16T03:50:40;25.15;;;17.23;;
77040;SDS011;65974;42.664;23.264;2023-07-16T03:53:05;23.67;;;16.00;;
77040;SDS011;65974;42.664;23.264;2023-07-16T03:55:30;20.13;;;15.85;;
77040;SDS011;65974;42.664;23.264;2023-07-16T03:57:56;21.10;;;15.68;;
77040;SDS011;65974;42.664;23.264;2023-07-16T04:00:22;24.33;;;15.93;;
77040;SDS011;65974;42.664;23.264;2023-07-16T04:02:47;22.13;;;14.77;;
77040;SDS011;65974;42.664;23.264;2023-07-16T04:05:12;22.52;;;14.50;;
77040;SDS011;65974;42.664;23.264;2023-07-16T04:07:38;17.95;;;13.68;;
77040;SDS011;65974;42.664;23.264;2023-07-16T04:10:04;19.67;;;14.02;;
77040;SDS011;65974;42.664;23.264;2023-07-16T04:12:29;22.33;;;14.85;;
77040;SDS011;65974;42.664;23.264;2023-07-16T04:14:56;19.40;;;13.70;;
77040;SDS011;65974;42.664;23.264;2023-07-16T04:17:23;20.27;;;12.85;;
77040;SDS011;65974;42.664;23.264;2023-07-16T04:19:48;18.30;;;13.48;;
77040;SDS011;65974;42.664;23.264;2023-07-16T04:22:14;20.35;;;13.38;;
77040;SDS011;65974;42.664;23.264;2023-07-16T04:24:39;21.15;;;13.45;;
77040;SDS011;65974;42.664;23.264;2023-07-16T04:27:05;21.30;;;13.02;;
77040;SDS011;65974;42.664;23.264;2023-07-16T04:29:30;16.98;;;12.18;;
77040;SDS011;65974;42.664;23.264;2023-07-16T04:31:56;16.50;;;13.25;;
77040;SDS011;65974;42.664;23.264;2023-07-16T04:34:21;14.98;;;12.00;;
77040;SDS011;65974;42.664;23.264;2023-07-16T04:36:47;19.05;;;12.60;;
77040;SDS011;65974;42.664;23.264;2023-07-16T04:39:12;19.33;;;10.60;;
77040;SDS011;65974;42.664;23.264;2023-07-16T04:41:37;16.35;;;11.18;;
77040;SDS011;65974;42.664;23.264;2023-07-16T04:44:04;16.77;;;11.60;;
77040;SDS011;65974;42.664;23.264;2023-07-16T04:46:29;19.52;;;13.18;;
77040;SDS011;65974;42.664;23.264;2023-07-16T04:48:55;24.27;;;13.00;;
77040;SDS011;65974;42.664;23.264;2023-07-16T04:51:21;16.35;;;12.18;;
77040;SDS011;65974;42.664;23.264;2023-07-16T04:53:46;19.40;;;13.00;;
77040;SDS011;65974;42.664;23.264;2023-07-16T04:56:12;17.25;;;10.63;;
77040;SDS011;65974;42.664;23.264;2023-07-16T04:58:38;18.45;;;11.38;;
77040;SDS011;65974;42.664;23.264;2023-07-16T05:01:03;15.02;;;11.70;;
77040;SDS011;65974;42.664;23.264;2023-07-16T05:03:29;16.27;;;11.60;;
77040;SDS011;65974;42.664;23.264;2023-07-16T05:05:54;15.60;;;11.20;;
77040;SDS011;65974;42.664;23.264;2023-07-16T05:08:20;16.10;;;9.75;;
77040;SDS011;65974;42.664;23.264;2023-07-16T05:10:45;15.45;;;11.18;;
77040;SDS011;65974;42.664;23.264;2023-07-16T05:13:10;15.07;;;9.05;;
77040;SDS011;65974;42.664;23.264;2023-07-16T05:15:37;11.73;;;8.35;;
77040;SDS011;65974;42.664;23.264;2023-07-16T05:18:03;10.18;;;9.00;;
77040;SDS011;65974;42.664;23.264;2023-07-16T05:20:28;10.43;;;7.97;;
77040;SDS011;65974;42.664;23.264;2023-07-16T05:22:54;31.13;;;9.05;;
77040;SDS011;65974;42.664;23.264;2023-07-16T05:25:19;10.95;;;8.38;;
77040;SDS011;65974;42.664;23.264;2023-07-16T05:27:45;11.65;;;7.85;;
77040;SDS011;65974;42.664;23.264;2023-07-16T05:30:10;10.00;;;8.30;;
77040;SDS011;65974;42.664;23.264;2023-07-16T05:32:36;10.48;;;8.75;;
77040;SDS011;65974;42.664;23.264;2023-07-16T05:35:01;11.68;;;7.97;;
77040;SDS011;65974;42.664;23.264;2023-07-16T05:37:26;13.10;;;6.43;;
77040;SDS011;65974;42.664;23.264;2023-07-16T05:39:52;12.57;;;7.85;;
77040;SDS011;65974;42.664;23.264;2023-07-16T05:42:17;14.70;;;7.75;;
77040;SDS011;65974;42.664;23.264;2023-07-16T05:44:43;10.18;;;7.68;;
77040;SDS011;65974;42.664;23.264;2023-07-16T05:47:09;10.75;;;7.95;;
77040;SDS011;65974;42.664;23.264;2023-07-16T05:49:35;13.65;;;7.68;;
77040;SDS011;65974;42.664;23.264;2023-07-16T05:52:00;11.82;;;7.18;;
77040;SDS011;65974;42.664;23.264;2023-07-16T05:54:26;12.85;;;7.45;;
77040;SDS011;65974;42.664;23.264;2023-07-16T05:56:51;12.52;;;7.78;;
77040;SDS011;65974;42.664;23.264;2023-07-16T05:59:18;15.23;;;7.80;;
77040;SDS011;65974;42.664;23.264;2023-07-16T06:01:43;10.18;;;6.20;;
77040;SDS011;65974;42.664;23.264;2023-07-16T06:04:09;9.07;;;7.18;;
77040;SDS011;65974;42.664;23.264;2023-07-16T06:06:34;9.38;;;8.23;;
77040;SDS011;65974;42.664;23.264;2023-07-16T06:08:59;8.20;;;7.10;;
77040;SDS011;65974;42.664;23.264;2023-07-16T06:11:25;9.98;;;7.30;;
77040;SDS011;65974;42.664;23.264;2023-07-16T06:13:52;12.80;;;7.90;;
77040;SDS011;65974;42.664;23.264;2023-07-16T06:16:19;8.55;;;7.05;;
77040;SDS011;65974;42.664;23.264;2023-07-16T06:18:44;12.52;;;7.57;;
77040;SDS011;65974;42.664;23.264;2023-07-16T06:21:09;9.93;;;6.65;;
77040;SDS011;65974;42.664;23.264;2023-07-16T06:23:35;8.27;;;6.75;;
77040;SDS011;65974;42.664;23.264;2023-07-16T06:26:00;11.43;;;7.28;;
77040;SDS011;65974;42.664;23.264;2023-07-16T06:28:25;9.90;;;6.78;;
77040;SDS011;65974;42.664;23.264;2023-07-16T06:30:51;12.27;;;8.55;;
77040;SDS011;65974;42.664;23.264;2023-07-16T06:33:19;13.55;;;7.45;;
77040;SDS011;65974;42.664;23.264;2023-07-16T06:35:45;13.18;;;8.38;;
77040;SDS011;65974;42.664;23.264;2023-07-16T06:38:12;11.85;;;8.50;;
77040;SDS011;65974;42.664;23.264;2023-07-16T06:40:38;12.68;;;8.05;;
77040;SDS011;65974;42.664;23.264;2023-07-16T06:43:03;10.38;;;8.32;;
77040;SDS011;65974;42.664;23.264;2023-07-16T06:45:29;10.30;;;7.47;;
77040;SDS011;65974;42.664;23.264;2023-07-16T06:47:54;12.98;;;8.98;;
77040;SDS011;65974;42.664;23.264;2023-07-16T06:50:20;12.32;;;7.78;;
77040;SDS011;65974;42.664;23.264;2023-07-16T06:52:45;14.02;;;8.40;;
77040;SDS011;65974;42.664;23.264;2023-07-16T06:55:10;11.73;;;8.70;;
77040;SDS011;65974;42.664;23.264;2023-07-16T06:57:36;16.20;;;8.90;;
77040;SDS011;65974;42.664;23.264;2023-07-16T07:00:01;14.10;;;9.27;;
77040;SDS011;65974;42.664;23.264;2023-07-16T07:02:27;13.45;;;9.20;;
77040;SDS011;65974;42.664;23.264;2023-07-16T07:04:54;12.73;;;9.00;;
77040;SDS011;65974;42.664;23.264;2023-07-16T07:07:19;16.08;;;8.70;;
77040;SDS011;65974;42.664;23.264;2023-07-16T07:09:47;11.98;;;8.20;;
77040;SDS011;65974;42.664;23.264;2023-07-16T07:12:13;15.45;;;8.50;;
77040;SDS011;65974;42.664;23.264;2023-07-16T07:14:39;12.45;;;9.73;;
77040;SDS011;65974;42.664;23.264;2023-07-16T07:17:04;13.85;;;9.93;;
77040;SDS011;65974;42.664;23.264;2023-07-16T07:19:30;14.88;;;9.55;;
77040;SDS011;65974;42.664;23.264;2023-07-16T07:21:57;14.70;;;10.13;;
77040;SDS011;65974;42.664;23.264;2023-07-16T07:24:22;16.92;;;9.70;;
77040;SDS011;65974;42.664;23.264;2023-07-16T07:26:48;16.95;;;9.88;;
77040;SDS011;65974;42.664;23.264;2023-07-16T07:29:13;14.40;;;10.02;;
77040;SDS011;65974;42.664;23.264;2023-07-16T07:31:39;16.33;;;9.98;;
77040;SDS011;65974;42.664;23.264;2023-07-16T07:34:04;16.05;;;10.70;;
77040;SDS011;65974;42.664;23.264;2023-07-16T07:36:30;14.10;;;10.30;;
77040;SDS011;65974;42.664;23.264;2023-07-16T07:38:55;14.82;;;10.30;;
77040;SDS011;65974;42.664;23.264;2023-07-16T07:41:21;14.10;;;10.38;;
77040;SDS011;65974;42.664;23.264;2023-07-16T07:43:46;11.05;;;8.20;;
77040;SDS011;65974;42.664;23.264;2023-07-16T07:46:12;14.00;;;10.88;;
77040;SDS011;65974;42.664;23.264;2023-07-16T07:48:37;14.75;;;10.40;;
77040;SDS011;65974;42.664;23.264;2023-07-16T07:51:02;15.45;;;9.88;;
77040;SDS011;65974;42.664;23.264;2023-07-16T07:53:28;14.52;;;11.35;;
77040;SDS011;65974;42.664;23.264;2023-07-16T07:55:53;13.25;;;9.85;;
77040;SDS011;65974;42.664;23.264;2023-07-16T07:58:19;14.50;;;9.52;;
77040;SDS011;65974;42.664;23.264;2023-07-16T08:00:44;16.10;;;10.00;;
77040;SDS011;65974;42.664;23.264;2023-07-16T08:03:10;14.48;;;9.18;;
77040;SDS011;65974;42.664;23.264;2023-07-16T08:05:36;13.10;;;9.98;;
77040;SDS011;65974;42.664;23.264;2023-07-16T08:08:01;14.60;;;10.13;;
77040;SDS011;65974;42.664;23.264;2023-07-16T08:10:26;14.05;;;9.77;;
77040;SDS011;65974;42.664;23.264;2023-07-16T08:12:52;14.98;;;10.75;;
77040;SDS011;65974;42.664;23.264;2023-07-16T08:15:17;18.02;;;11.40;;
77040;SDS011;65974;42.664;23.264;2023-07-16T08:17:43;14.70;;;9.95;;
77040;SDS011;65974;42.664;23.264;2023-07-16T08:20:10;13.80;;;9.70;;
77040;SDS011;65974;42.664;23.264;2023-07-16T08:22:37;11.88;;;9.55;;
77040;SDS011;65974;42.664;23.264;2023-07-16T08:25:03;14.70;;;10.38;;
77040;SDS011;65974;42.664;23.264;2023-07-16T08:27:29;14.45;;;9.55;;
77040;SDS011;65974;42.664;23.264;2023-07-16T08:29:55;14.60;;;10.18;;
77040;SDS011;65974;42.664;23.264;2023-07-16T08:32:20;16.83;;;10.10;;
77040;SDS011;65974;42.664;23.264;2023-07-16T08:34:47;12.75;;;10.13;;
77040;SDS011;65974;42.664;23.264;2023-07-16T08:37:13;15.73;;;10.05;;
77040;SDS011;65974;42.664;23.264;2023-07-16T08:39:39;11.98;;;10.13;;
77040;SDS011;65974;42.664;23.264;2023-07-16T08:42:04;16.45;;;9.50;;
77040;SDS011;65974;42.664;23.264;2023-07-16T08:44:30;16.77;;;11.05;;
77040;SDS011;65974;42.664;23.264;2023-07-16T08:46:56;18.17;;;13.07;;
77040;SDS011;65974;42.664;23.264;2023-07-16T08:49:22;13.05;;;10.65;;
77040;SDS011;65974;42.664;23.264;2023-07-16T08:51:48;13.43;;;9.07;;
77040;SDS011;65974;42.664;23.264;2023-07-16T08:54:15;16.02;;;10.63;;
77040;SDS011;65974;42.664;23.264;2023-07-16T08:56:43;15.45;;;9.85;;
77040;SDS011;65974;42.664;23.264;2023-07-16T08:59:09;15.40;;;11.40;;
77040;SDS011;65974;42.664;23.264;2023-07-16T09:01:35;15.02;;;11.30;;
77040;SDS011;65974;42.664;23.264;2023-07-16T09:04:02;16.90;;;10.30;;
77040;SDS011;65974;42.664;23.264;2023-07-16T09:06:27;14.85;;;10.35;;
77040;SDS011;65974;42.664;23.264;2023-07-16T09:08:53;18.58;;;10.32;;
77040;SDS011;65974;42.664;23.264;2023-07-16T09:11:18;21.20;;;10.07;;
77040;SDS011;65974;42.664;23.264;2023-07-16T09:13:46;15.50;;;9.20;;
77040;SDS011;65974;42.664;23.264;2023-07-16T09:16:13;15.57;;;10.43;;
77040;SDS011;65974;42.664;23.264;2023-07-16T09:18:41;16.75;;;10.82;;
77040;SDS011;65974;42.664;23.264;2023-07-16T09:21:07;16.15;;;10.40;;
77040;SDS011;65974;42.664;23.264;2023-07-16T09:23:33;12.50;;;10.02;;
77040;SDS011;65974;42.664;23.264;2023-07-16T09:25:59;17.65;;;11.00;;
77040;SDS011;65974;42.664;23.264;2023-07-16T09:28:24;11.30;;;10.10;;
77040;SDS011;65974;42.664;23.264;2023-07-16T09:30:51;14.80;;;10.43;;
77040;SDS011;65974;42.664;23.264;2023-07-16T09:33:17;13.10;;;9.73;;
77040;SDS011;65974;42.664;23.264;2023-07-16T09:35:48;12.80;;;10.13;;
77040;SDS011;65974;42.664;23.264;2023-07-16T09:38:14;14.98;;;9.80;;
77040;SDS011;65974;42.664;23.264;2023-07-16T09:40:41;12.95;;;10.00;;
77040;SDS011;65974;42.664;23.264;2023-07-16T09:43:13;12.77;;;10.27;;
77040;SDS011;65974;42.664;23.264;2023-07-16T09:45:38;15.27;;;10.20;;
77040;SDS011;65974;42.664;23.264;2023-07-16T09:48:04;17.45;;;11.02;;
77040;SDS011;65974;42.664;23.264;2023-07-16T09:50:34;17.65;;;11.18;;
77040;SDS011;65974;42.664;23.264;2023-07-16T09:53:00;15.38;;;9.88;;
77040;SDS011;65974;42.664;23.264;2023-07-16T09:55:28;13.85;;;9.80;;
77040;SDS011;65974;42.664;23.264;2023-07-16T09:57:56;15.30;;;10.48;;
77040;SDS011;65974;42.664;23.264;2023-07-16T10:00:24;17.88;;;12.10;;
77040;SDS011;65974;42.664;23.264;2023-07-16T10:02:50;19.83;;;10.63;;
77040;SDS011;65974;42.664;23.264;2023-07-16T10:07:51;19.77;;;11.18;;
77040;SDS011;65974;42.664;23.264;2023-07-16T10:10:18;13.18;;;10.73;;
77040;SDS011;65974;42.664;23.264;2023-07-16T10:13:06;14.80;;;10.55;;
77040;SDS011;65974;42.664;23.264;2023-07-16T10:15:29;20.15;;;12.70;;
77040;SDS011;65974;42.664;23.264;2023-07-16T10:17:56;15.13;;;9.90;;
77040;SDS011;65974;42.664;23.264;2023-07-16T10:20:28;18.20;;;10.35;;
77040;SDS011;65974;42.664;23.264;2023-07-16T10:23:11;15.55;;;10.60;;
77040;SDS011;65974;42.664;23.264;2023-07-16T10:25:40;14.20;;;10.80;;
77040;SDS011;65974;42.664;23.264;2023-07-16T10:28:22;14.25;;;11.02;;
77040;SDS011;65974;42.664;23.264;2023-07-16T10:30:49;15.02;;;10.13;;
77040;SDS011;65974;42.664;23.264;2023-07-16T10:33:14;13.65;;;10.48;;
77040;SDS011;65974;42.664;23.264;2023-07-16T10:35:44;19.05;;;11.23;;
77040;SDS011;65974;42.664;23.264;2023-07-16T10:38:10;11.98;;;10.20;;
77040;SDS011;65974;42.664;23.264;2023-07-16T10:40:43;16.92;;;11.68;;
77040;SDS011;65974;42.664;23.264;2023-07-16T10:43:09;15.07;;;10.45;;
77040;SDS011;65974;42.664;23.264;2023-07-16T10:45:35;14.93;;;10.88;;
77040;SDS011;65974;42.664;23.264;2023-07-16T10:48:01;15.32;;;11.05;;
77040;SDS011;65974;42.664;23.264;2023-07-16T10:50:27;14.88;;;10.70;;
77040;SDS011;65974;42.664;23.264;2023-07-16T10:52:53;20.02;;;12.48;;
77040;SDS011;65974;42.664;23.264;2023-07-16T10:55:20;17.23;;;9.75;;
77040;SDS011;65974;42.664;23.264;2023-07-16T10:57:47;14.10;;;10.38;;
77040;SDS011;65974;42.664;23.264;2023-07-16T11:00:14;17.45;;;11.35;;
77040;SDS011;65974;42.664;23.264;2023-07-16T11:02:40;12.73;;;10.25;;
77040;SDS011;65974;42.664;23.264;2023-07-16T11:05:06;15.25;;;10.18;;
77040;SDS011;65974;42.664;23.264;2023-07-16T11:07:35;19.52;;;11.95;;
77040;SDS011;65974;42.664;23.264;2023-07-16T11:10:00;15.35;;;11.23;;
77040;SDS011;65974;42.664;23.264;2023-07-16T11:12:28;16.00;;;11.60;;
77040;SDS011;65974;42.664;23.264;2023-07-16T11:14:54;14.82;;;11.13;;
77040;SDS011;65974;42.664;23.264;2023-07-16T11:17:21;17.05;;;11.70;;
77040;SDS011;65974;42.664;23.264;2023-07-16T11:19:50;18.83;;;11.00;;
77040;SDS011;65974;42.664;23.264;2023-07-16T11:24:47;20.15;;;10.32;;
77040;SDS011;65974;42.664;23.264;2023-07-16T11:29:52;15.90;;;10.20;;
77040;SDS011;65974;42.664;23.264;2023-07-16T11:32:52;14.18;;;10.50;;
77040;SDS011;65974;42.664;23.264;2023-07-16T11:35:16;13.00;;;10.15;;
77040;SDS011;65974;42.664;23.264;2023-07-16T11:37:42;17.73;;;12.38;;
77040;SDS011;65974;42.664;23.264;2023-07-16T11:40:10;17.27;;;11.48;;
77040;SDS011;65974;42.664;23.264;2023-07-16T11:42:40;14.50;;;10.57;;
77040;SDS011;65974;42.664;23.264;2023-07-16T11:45:25;15.18;;;10.88;;
77040;SDS011;65974;42.664;23.264;2023-07-16T11:47:53;13.38;;;9.65;;
77040;SDS011;65974;42.664;23.264;2023-07-16T11:50:19;13.25;;;10.98;;
77040;SDS011;65974;42.664;23.264;2023-07-16T11:52:54;16.15;;;10.85;;
77040;SDS011;65974;42.664;23.264;2023-07-16T11:55:21;12.05;;;10.70;;
77040;SDS011;65974;42.664;23.264;2023-07-16T11:57:46;18.65;;;10.43;;
77040;SDS011;65974;42.664;23.264;2023-07-16T12:00:12;13.90;;;10.02;;
77040;SDS011;65974;42.664;23.264;2023-07-16T12:02:38;13.65;;;10.73;;
77040;SDS011;65974;42.664;23.264;2023-07-16T12:05:03;13.63;;;9.73;;
77040;SDS011;65974;42.664;23.264;2023-07-16T12:07:33;14.05;;;11.05;;
77040;SDS011;65974;42.664;23.264;2023-07-16T12:10:02;13.68;;;9.75;;
77040;SDS011;65974;42.664;23.264;2023-07-16T12:12:29;13.57;;;10.27;;
77040;SDS011;65974;42.664;23.264;2023-07-16T12:14:54;16.33;;;9.90;;
77040;SDS011;65974;42.664;23.264;2023-07-16T12:17:19;14.25;;;10.38;;
77040;SDS011;65974;42.664;23.264;2023-07-16T12:19:45;17.45;;;9.85;;
77040;SDS011;65974;42.664;23.264;2023-07-16T12:22:10;12.50;;;8.40;;
77040;SDS011;65974;42.664;23.264;2023-07-16T12:24:36;12.48;;;10.35;;
77040;SDS011;65974;42.664;23.264;2023-07-16T12:27:02;16.88;;;9.75;;
77040;SDS011;65974;42.664;23.264;2023-07-16T12:29:27;14.07;;;9.32;;
77040;SDS011;65974;42.664;23.264;2023-07-16T12:31:53;12.65;;;9.63;;
77040;SDS011;65974;42.664;23.264;2023-07-16T12:34:18;11.95;;;8.10;;
77040;SDS011;65974;42.664;23.264;2023-07-16T12:36:44;12.95;;;9.10;;
77040;SDS011;65974;42.664;23.264;2023-07-16T12:39:09;12.40;;;8.48;;
77040;SDS011;65974;42.664;23.264;2023-07-16T12:41:35;13.90;;;10.35;;
77040;SDS011;65974;42.664;23.264;2023-07-16T12:44:00;13.80;;;9.52;;
77040;SDS011;65974;42.664;23.264;2023-07-16T12:46:25;12.30;;;9.20;;
77040;SDS011;65974;42.664;23.264;2023-07-16T12:48:51;12.55;;;9.43;;
77040;SDS011;65974;42.664;23.264;2023-07-16T12:51:16;12.73;;;9.15;;
77040;SDS011;65974;42.664;23.264;2023-07-16T12:53:42;14.30;;;9.27;;
77040;SDS011;65974;42.664;23.264;2023-07-16T12:56:09;11.50;;;9.30;;
77040;SDS011;65974;42.664;23.264;2023-07-16T12:58:34;15.25;;;9.15;;
77040;SDS011;65974;42.664;23.264;2023-07-16T13:01:00;11.90;;;9.00;;
77040;SDS011;65974;42.664;23.264;2023-07-16T13:03:25;13.98;;;10.77;;
77040;SDS011;65974;42.664;23.264;2023-07-16T13:05:51;14.63;;;8.00;;
77040;SDS011;65974;42.664;23.264;2023-07-16T13:08:16;13.20;;;7.68;;
77040;SDS011;65974;42.664;23.264;2023-07-16T13:10:41;10.15;;;7.93;;
77040;SDS011;65974;42.664;23.264;2023-07-16T13:13:07;12.10;;;7.55;;
77040;SDS011;65974;42.664;23.264;2023-07-16T13:15:33;11.85;;;7.65;;
77040;SDS011;65974;42.664;23.264;2023-07-16T13:17:58;16.30;;;9.10;;
77040;SDS011;65974;42.664;23.264;2023-07-16T13:20:25;14.23;;;9.38;;
77040;SDS011;65974;42.664;23.264;2023-07-16T13:25:16;13.63;;;8.18;;
77040;SDS011;65974;42.664;23.264;2023-07-16T13:27:42;10.48;;;7.78;;
77040;SDS011;65974;42.664;23.264;2023-07-16T13:30:08;16.00;;;8.60;;
77040;SDS011;65974;42.664;23.264;2023-07-16T13:32:33;12.55;;;10.00;;
77040;SDS011;65974;42.664;23.264;2023-07-16T13:34:59;12.93;;;9.77;;
77040;SDS011;65974;42.664;23.264;2023-07-16T13:37:25;11.27;;;8.82;;
77040;SDS011;65974;42.664;23.264;2023-07-16T13:39:50;15.95;;;9.15;;
77040;SDS011;65974;42.664;23.264;2023-07-16T13:42:15;13.13;;;8.85;;
77040;SDS011;65974;42.664;23.264;2023-07-16T13:44:41;14.65;;;9.27;;
77040;SDS011;65974;42.664;23.264;2023-07-16T13:47:06;13.25;;;9.13;;
77040;SDS011;65974;42.664;23.264;2023-07-16T13:49:32;11.77;;;8.63;;
77040;SDS011;65974;42.664;23.264;2023-07-16T13:51:57;11.07;;;8.52;;
77040;SDS011;65974;42.664;23.264;2023-07-16T13:54:23;15.68;;;8.48;;
77040;SDS011;65974;42.664;23.264;2023-07-16T13:56:48;12.48;;;9.18;;
77040;SDS011;65974;42.664;23.264;2023-07-16T13:59:14;13.45;;;9.05;;
77040;SDS011;65974;42.664;23.264;2023-07-16T14:01:40;11.93;;;9.02;;
77040;SDS011;65974;42.664;23.264;2023-07-16T14:04:05;13.75;;;8.68;;
77040;SDS011;65974;42.664;23.264;2023-07-16T14:06:31;15.02;;;7.97;;
77040;SDS011;65974;42.664;23.264;2023-07-16T14:08:57;9.98;;;8.10;;
77040;SDS011;65974;42.664;23.264;2023-07-16T14:11:23;12.43;;;8.07;;
77040;SDS011;65974;42.664;23.264;2023-07-16T14:13:49;12.85;;;7.82;;
77040;SDS011;65974;42.664;23.264;2023-07-16T14:16:19;13.10;;;8.18;;
77040;SDS011;65974;42.664;23.264;2023-07-16T14:18:49;10.07;;;7.88;;
77040;SDS011;65974;42.664;23.264;2023-07-16T14:21:16;9.70;;;7.63;;
77040;SDS011;65974;42.664;23.264;2023-07-16T14:23:41;10.80;;;7.20;;
77040;SDS011;65974;42.664;23.264;2023-07-16T14:26:06;12.45;;;8.32;;
77040;SDS011;65974;42.664;23.264;2023-07-16T14:28:32;13.63;;;8.13;;
77040;SDS011;65974;42.664;23.264;2023-07-16T14:30:57;9.38;;;7.65;;
77040;SDS011;65974;42.664;23.264;2023-07-16T14:33:23;11.63;;;8.40;;
77040;SDS011;65974;42.664;23.264;2023-07-16T14:35:48;11.07;;;8.73;;